createdAt,value
2018-03-27T00:01:16.957Z,21.20
2018-03-27T00:03:44.414Z,23.90
2018-03-27T00:06:11.884Z,21.43
2018-03-27T00:08:40.093Z,21.47
2018-03-27T00:11:07.939Z,21.87
2018-03-27T00:13:36.168Z,23.83
2018-03-27T00:16:04.385Z,21.53
2018-03-27T00:18:32.231Z,21.10
2018-03-27T00:21:00.442Z,22.47
2018-03-27T00:23:28.647Z,20.07
2018-03-27T00:25:56.854Z,21.33
2018-03-27T00:28:36.739Z,21.90
2018-03-27T00:31:16.426Z,20.70
2018-03-27T00:33:56.053Z,21.07
2018-03-27T00:36:36.054Z,22.30
2018-03-27T00:39:16.155Z,19.40
2018-03-27T00:45:09.616Z,21.00
2018-03-27T00:47:37.051Z,20.60
2018-03-27T00:50:06.089Z,18.70
2018-03-27T00:52:35.068Z,18.87
2018-03-27T00:55:02.522Z,21.03
2018-03-27T00:57:30.362Z,19.37
2018-03-27T00:59:58.583Z,19.63
2018-03-27T01:02:26.846Z,18.97
2018-03-27T01:04:54.998Z,19.50
2018-03-27T01:07:23.190Z,17.53
2018-03-27T01:09:51.042Z,18.87
2018-03-27T01:12:18.483Z,18.40
2018-03-27T01:14:46.349Z,19.37
2018-03-27T01:17:13.778Z,19.77
2018-03-27T01:19:41.627Z,18.40
2018-03-27T01:22:09.537Z,18.40
2018-03-27T01:24:37.760Z,19.90
2018-03-27T01:27:05.980Z,18.47
2018-03-27T01:29:35.118Z,19.67
2018-03-27T01:32:02.942Z,20.20
2018-03-27T01:34:30.387Z,19.50
2018-03-27T01:36:57.831Z,19.47
2018-03-27T01:39:25.277Z,20.17
2018-03-27T01:41:52.779Z,19.90
2018-03-27T01:44:20.610Z,19.23
2018-03-27T01:46:48.821Z,19.63
2018-03-27T01:49:17.046Z,19.50
2018-03-27T01:51:45.247Z,20.03
2018-03-27T01:54:13.096Z,20.57
2018-03-27T01:56:41.306Z,18.67
2018-03-27T01:59:09.548Z,20.03
2018-03-27T02:01:37.808Z,22.33
2018-03-27T02:04:05.648Z,22.93
2018-03-27T02:06:33.910Z,20.37
2018-03-27T02:09:02.124Z,21.20
2018-03-27T02:11:35.599Z,21.00
2018-03-27T02:14:08.827Z,21.37
2018-03-27T02:16:42.472Z,21.30
2018-03-27T02:19:15.651Z,21.87
2018-03-27T02:21:42.995Z,24.00
2018-03-27T02:24:11.235Z,24.10
2018-03-27T02:29:12.980Z,26.60
2018-03-27T02:31:40.820Z,24.70
2018-03-27T02:34:09.067Z,25.63
2018-03-27T02:36:37.278Z,26.70
2018-03-27T02:39:05.122Z,28.67
2018-03-27T02:41:32.586Z,28.07
2018-03-27T02:44:00.792Z,25.87
2018-03-27T02:46:29.014Z,27.50
2018-03-27T02:48:56.455Z,27.60
2018-03-27T02:51:25.038Z,29.87
2018-03-27T02:53:52.492Z,28.67
2018-03-27T02:56:20.343Z,29.60
2018-03-27T02:58:48.549Z,26.60
2018-03-27T03:01:16.403Z,27.53
2018-03-27T03:03:44.617Z,29.60
2018-03-27T03:06:12.853Z,31.07
2018-03-27T03:08:41.067Z,31.17
2018-03-27T03:11:09.287Z,30.80
2018-03-27T03:13:37.128Z,31.53
2018-03-27T03:16:04.674Z,32.70
2018-03-27T03:18:32.518Z,30.80
2018-03-27T03:20:59.994Z,30.43
2018-03-27T03:25:59.886Z,35.27
2018-03-27T03:28:27.350Z,34.07
2018-03-27T03:30:56.321Z,34.40
2018-03-27T03:33:24.530Z,35.07
2018-03-27T03:35:52.377Z,35.07
2018-03-27T03:38:19.828Z,36.80
2018-03-27T03:40:47.293Z,35.50
2018-03-27T03:43:14.734Z,37.10
2018-03-27T03:45:42.582Z,38.93
2018-03-27T03:48:10.021Z,36.07
2018-03-27T03:50:37.463Z,37.30
2018-03-27T03:53:05.322Z,39.00
2018-03-27T03:55:32.753Z,40.47
2018-03-27T03:58:00.970Z,38.97
2018-03-27T04:00:28.422Z,39.00
2018-03-27T04:02:56.288Z,35.87
2018-03-27T04:05:23.772Z,37.50
2018-03-27T04:07:51.214Z,38.50
2018-03-27T04:10:19.466Z,39.77
2018-03-27T04:12:47.303Z,36.40
2018-03-27T04:15:15.153Z,37.10
2018-03-27T04:17:42.614Z,42.27
2018-03-27T04:20:10.062Z,40.90
2018-03-27T04:22:38.267Z,42.30
2018-03-27T04:25:06.120Z,40.87
2018-03-27T04:27:34.337Z,42.87
2018-03-27T04:30:02.200Z,45.77
2018-03-27T04:32:30.036Z,41.90
2018-03-27T04:34:57.501Z,40.00
2018-03-27T04:37:24.945Z,40.67
2018-03-27T04:39:52.804Z,43.43
2018-03-27T04:42:20.267Z,43.97
2018-03-27T04:44:47.738Z,46.87
2018-03-27T04:47:15.182Z,43.90
2018-03-27T04:49:42.631Z,41.47
2018-03-27T04:52:10.084Z,44.50
2018-03-27T04:54:37.931Z,43.53
2018-03-27T04:57:05.792Z,47.00
2018-03-27T04:59:33.258Z,46.37
2018-03-27T05:02:00.714Z,44.10
2018-03-27T05:04:28.566Z,43.37
2018-03-27T05:06:56.770Z,45.60
2018-03-27T05:09:24.990Z,50.17
2018-03-27T05:11:53.198Z,45.87
2018-03-27T05:14:21.511Z,47.13
2018-03-27T05:16:49.353Z,44.37
2018-03-27T05:19:16.807Z,40.20
2018-03-27T05:21:44.256Z,40.70
2018-03-27T05:24:12.470Z,38.63
2018-03-27T05:26:39.917Z,35.27
2018-03-27T05:29:07.392Z,38.07
2018-03-27T05:31:35.247Z,44.20
2018-03-27T05:34:03.451Z,43.10
2018-03-27T05:36:31.295Z,44.47
2018-03-27T05:38:59.508Z,44.60
2018-03-27T05:41:26.965Z,43.13
2018-03-27T05:43:54.799Z,40.40
2018-03-27T05:46:22.247Z,44.03
2018-03-27T05:48:49.700Z,45.43
2018-03-27T05:51:17.987Z,42.40
2018-03-27T05:53:45.436Z,41.70
2018-03-27T05:56:12.896Z,43.57
2018-03-27T05:58:41.107Z,44.00
2018-03-27T06:01:08.954Z,43.60
2018-03-27T06:03:37.154Z,45.10
2018-03-27T06:06:04.624Z,40.40
2018-03-27T06:08:32.084Z,41.70
2018-03-27T06:11:00.308Z,37.20
2018-03-27T06:13:27.763Z,36.77
2018-03-27T06:15:55.992Z,37.20
2018-03-27T06:18:23.467Z,31.47
2018-03-27T06:20:50.898Z,32.93
2018-03-27T06:23:18.734Z,32.87
2018-03-27T06:25:46.951Z,34.27
2018-03-27T06:28:14.794Z,30.70
2018-03-27T06:30:42.240Z,29.83
2018-03-27T06:33:09.676Z,28.47
2018-03-27T06:35:37.891Z,28.97
2018-03-27T06:38:05.332Z,27.80
2018-03-27T06:40:32.802Z,27.33
2018-03-27T06:43:00.242Z,27.50
2018-03-27T06:45:27.678Z,24.70
2018-03-27T06:47:55.882Z,26.70
2018-03-27T06:50:24.102Z,25.30
2018-03-27T06:52:51.542Z,26.43
2018-03-27T06:55:19.775Z,26.40
2018-03-27T06:57:47.267Z,25.77
2018-03-27T07:00:14.703Z,24.93
2018-03-27T07:02:42.154Z,24.77
2018-03-27T07:05:09.603Z,24.47
2018-03-27T07:07:37.826Z,25.80
2018-03-27T07:10:05.252Z,24.60
2018-03-27T07:12:33.472Z,24.30
2018-03-27T07:15:01.322Z,24.10
2018-03-27T07:17:28.806Z,25.53
2018-03-27T07:19:57.034Z,24.83
2018-03-27T07:22:24.463Z,23.57
2018-03-27T07:24:51.919Z,23.50
2018-03-27T07:27:19.375Z,24.33
2018-03-27T07:29:46.832Z,25.20
2018-03-27T07:32:15.043Z,23.57
2018-03-27T07:34:42.486Z,22.67
2018-03-27T07:37:10.699Z,25.53
2018-03-27T07:39:38.154Z,23.93
2018-03-27T07:44:40.287Z,25.70
2018-03-27T07:47:07.733Z,23.53
2018-03-27T07:49:35.202Z,23.47
2018-03-27T07:52:03.402Z,24.53
2018-03-27T07:54:31.276Z,23.87
2018-03-27T07:56:58.694Z,22.43
2018-03-27T07:59:26.146Z,21.27
2018-03-27T08:01:53.578Z,21.20
2018-03-27T08:04:21.336Z,21.80
2018-03-27T08:06:49.546Z,21.70
2018-03-27T08:09:17.003Z,21.00
2018-03-27T08:11:44.446Z,20.17
2018-03-27T08:14:12.651Z,21.53
2018-03-27T08:16:40.090Z,20.80
2018-03-27T08:19:08.299Z,22.30
2018-03-27T08:21:36.148Z,23.47
2018-03-27T08:24:03.607Z,20.30
2018-03-27T08:26:31.023Z,21.20
2018-03-27T08:28:58.486Z,20.67
2018-03-27T08:31:25.930Z,21.10
2018-03-27T08:33:54.142Z,19.23
2018-03-27T08:36:21.692Z,21.47
2018-03-27T08:38:49.055Z,22.80
2018-03-27T08:41:16.899Z,21.00
2018-03-27T08:43:44.335Z,21.03
2018-03-27T08:46:12.490Z,20.53
2018-03-27T08:48:39.991Z,21.90
2018-03-27T08:51:07.395Z,21.20
2018-03-27T08:53:35.631Z,19.13
2018-03-27T08:56:03.880Z,21.93
2018-03-27T08:58:32.107Z,21.73
2018-03-27T09:00:59.559Z,21.80
2018-03-27T09:03:27.408Z,20.10
2018-03-27T09:05:55.253Z,20.53
2018-03-27T09:08:23.470Z,19.20
2018-03-27T09:10:50.913Z,18.73
2018-03-27T09:13:18.355Z,20.00
2018-03-27T09:15:45.825Z,20.47
2018-03-27T09:18:13.282Z,19.90
2018-03-27T09:20:40.736Z,18.90
2018-03-27T09:23:08.209Z,16.77
2018-03-27T09:25:35.669Z,16.80
2018-03-27T09:28:03.928Z,17.07
2018-03-27T09:30:31.379Z,15.80
2018-03-27T09:32:58.821Z,16.07
2018-03-27T09:35:26.267Z,17.17
2018-03-27T09:37:53.728Z,16.97
2018-03-27T09:40:21.964Z,14.87
2018-03-27T09:42:49.415Z,16.37
2018-03-27T09:45:16.878Z,14.00
2018-03-27T09:47:44.318Z,12.00
2018-03-27T09:50:11.779Z,9.70
2018-03-27T09:52:40.000Z,8.67
2018-03-27T09:55:07.432Z,7.00
2018-03-27T09:57:35.644Z,8.80
2018-03-27T10:00:03.133Z,7.70
2018-03-27T10:02:30.572Z,6.83
2018-03-27T10:04:58.426Z,7.03
2018-03-27T10:07:26.268Z,7.30
2018-03-27T10:09:54.107Z,8.03
2018-03-27T10:12:21.579Z,7.87
2018-03-27T10:14:49.034Z,7.80
2018-03-27T10:17:17.258Z,8.70
2018-03-27T10:19:44.705Z,7.67
2018-03-27T10:22:12.573Z,8.00
2018-03-27T10:24:40.771Z,7.83
2018-03-27T10:27:08.216Z,7.50
2018-03-27T10:29:35.664Z,6.50
2018-03-27T10:32:03.881Z,7.83
2018-03-27T10:34:31.338Z,7.83
2018-03-27T10:36:59.564Z,8.80
2018-03-27T10:39:27.031Z,7.83
2018-03-27T10:41:55.346Z,10.00
2018-03-27T10:44:22.812Z,10.83
2018-03-27T10:46:51.156Z,10.90
2018-03-27T10:49:19.411Z,11.57
2018-03-27T10:51:47.638Z,11.93
2018-03-27T10:54:15.091Z,11.60
2018-03-27T10:56:42.585Z,12.00
2018-03-27T10:59:10.035Z,14.83
2018-03-27T11:01:37.475Z,16.53
2018-03-27T11:04:05.706Z,11.07
2018-03-27T11:06:33.158Z,15.27
2018-03-27T11:09:00.992Z,16.63
2018-03-27T11:11:29.216Z,17.30
2018-03-27T11:13:56.662Z,16.60
2018-03-27T11:16:24.878Z,16.70
2018-03-27T11:18:53.098Z,17.90
2018-03-27T11:21:20.550Z,19.70
2018-03-27T11:23:48.008Z,15.40
2018-03-27T11:26:15.459Z,19.33
2018-03-27T11:28:42.938Z,19.37
2018-03-27T11:31:10.395Z,18.40
2018-03-27T11:33:37.834Z,19.07
2018-03-27T11:36:06.148Z,21.20
2018-03-27T11:38:33.586Z,21.07
2018-03-27T11:41:01.812Z,19.33
2018-03-27T11:43:29.653Z,20.77
2018-03-27T11:45:57.875Z,21.00
2018-03-27T11:48:25.323Z,20.50
2018-03-27T11:50:53.522Z,20.47
2018-03-27T11:53:20.974Z,20.67
2018-03-27T11:55:49.193Z,20.60
2018-03-27T11:58:16.627Z,19.97
2018-03-27T12:00:44.076Z,20.40
2018-03-27T12:03:11.517Z,20.40
2018-03-27T12:05:38.964Z,19.90
2018-03-27T12:08:07.520Z,22.67
2018-03-27T12:10:35.759Z,20.87
2018-03-27T12:13:03.212Z,19.37
2018-03-27T12:15:30.651Z,19.93
2018-03-27T12:17:59.003Z,17.43
2018-03-27T12:20:26.849Z,20.70
2018-03-27T12:22:54.299Z,21.60
2018-03-27T12:25:21.748Z,19.83
2018-03-27T12:27:49.963Z,17.20
2018-03-27T12:30:17.424Z,17.80
2018-03-27T12:32:45.259Z,20.63
2018-03-27T12:35:13.479Z,19.17
2018-03-27T12:37:40.931Z,19.17
2018-03-27T12:40:08.794Z,19.97
2018-03-27T12:42:36.993Z,20.20
2018-03-27T12:45:05.228Z,18.40
2018-03-27T12:47:32.771Z,17.10
2018-03-27T12:50:00.370Z,18.50
2018-03-27T12:52:28.588Z,16.57
2018-03-27T12:54:56.048Z,16.90
2018-03-27T12:57:23.487Z,17.30
2018-03-27T12:59:50.943Z,17.03
2018-03-27T13:02:18.409Z,15.50
2018-03-27T13:04:47.001Z,15.07
2018-03-27T13:07:14.443Z,14.40
2018-03-27T13:09:42.664Z,15.13
2018-03-27T13:12:10.884Z,14.33
2018-03-27T13:14:38.334Z,16.57
2018-03-27T13:17:05.776Z,14.67
2018-03-27T13:19:33.245Z,15.33
2018-03-27T13:22:01.068Z,16.40
2018-03-27T13:24:28.511Z,15.53
2018-03-27T13:26:55.953Z,17.83
2018-03-27T13:29:23.414Z,17.43
2018-03-27T13:31:50.863Z,18.57
2018-03-27T13:34:19.108Z,22.03
2018-03-27T13:36:46.562Z,19.53
2018-03-27T13:39:14.008Z,18.80
2018-03-27T13:41:41.479Z,19.03
2018-03-27T13:44:09.322Z,21.60
2018-03-27T13:46:37.538Z,19.63
2018-03-27T13:49:05.386Z,19.90
2018-03-27T13:51:32.851Z,21.03
2018-03-27T13:54:00.291Z,19.90
2018-03-27T13:56:28.134Z,19.93
2018-03-27T13:58:55.993Z,21.60
2018-03-27T14:01:24.208Z,18.53
2018-03-27T14:03:51.644Z,21.60
2018-03-27T14:06:19.880Z,19.90
2018-03-27T14:08:47.325Z,20.10
2018-03-27T14:11:14.769Z,19.70
2018-03-27T14:13:42.223Z,19.27
2018-03-27T14:16:10.443Z,20.07
2018-03-27T14:18:37.899Z,19.83
2018-03-27T14:21:05.356Z,20.30
2018-03-27T14:23:32.813Z,20.10
2018-03-27T14:26:01.040Z,20.43
2018-03-27T14:28:28.505Z,21.43
2018-03-27T14:30:55.944Z,20.37
2018-03-27T14:33:23.386Z,21.23
2018-03-27T14:35:50.842Z,21.13
2018-03-27T14:38:18.330Z,22.90
2018-03-27T14:40:46.135Z,21.30
2018-03-27T14:43:13.580Z,22.53
2018-03-27T14:45:41.788Z,21.37
2018-03-27T14:48:09.230Z,21.00
2018-03-27T14:50:36.686Z,19.53
2018-03-27T14:53:04.143Z,21.60
2018-03-27T14:55:31.585Z,20.10
2018-03-27T14:57:59.779Z,21.50
2018-03-27T15:00:27.228Z,21.37
2018-03-27T15:02:54.666Z,21.40
2018-03-27T15:05:22.520Z,19.90
2018-03-27T15:07:50.730Z,21.30
2018-03-27T15:10:18.948Z,22.53
2018-03-27T15:12:46.401Z,20.37
2018-03-27T15:15:13.835Z,21.80
2018-03-27T15:17:41.271Z,19.97
2018-03-27T15:20:08.720Z,21.97
2018-03-27T15:22:36.922Z,22.87
2018-03-27T15:25:04.367Z,21.50
2018-03-27T15:27:31.806Z,17.33
2018-03-27T15:29:59.704Z,15.37
2018-03-27T15:32:27.176Z,13.53
2018-03-27T15:34:54.623Z,12.33
2018-03-27T15:37:22.049Z,12.50
2018-03-27T15:39:50.258Z,13.70
2018-03-27T15:42:17.716Z,13.33
2018-03-27T15:44:45.550Z,13.23
2018-03-27T15:47:13.384Z,12.83
2018-03-27T15:49:40.842Z,13.00
2018-03-27T15:52:08.336Z,12.30
2018-03-27T15:54:36.567Z,14.40
2018-03-27T15:57:04.048Z,14.83
2018-03-27T15:59:31.497Z,15.23
2018-03-27T16:01:59.831Z,13.63
2018-03-27T16:04:27.348Z,13.50
2018-03-27T16:06:55.626Z,12.87
2018-03-27T16:09:23.442Z,12.70
2018-03-27T16:11:50.889Z,13.23
2018-03-27T16:14:18.972Z,13.27
2018-03-27T16:16:46.530Z,15.17
2018-03-27T16:19:14.000Z,15.13
2018-03-27T16:21:41.448Z,15.60
2018-03-27T16:24:09.796Z,14.93
2018-03-27T16:26:38.061Z,14.50
2018-03-27T16:29:05.618Z,15.03
2018-03-27T16:31:33.862Z,15.40
2018-03-27T16:34:01.330Z,13.53
2018-03-27T16:36:30.498Z,15.80
2018-03-27T16:38:57.962Z,14.80
2018-03-27T16:41:25.842Z,19.73
2018-03-27T16:43:53.673Z,18.23
2018-03-27T16:46:21.916Z,18.20
2018-03-27T16:48:49.429Z,18.13
2018-03-27T16:51:16.854Z,18.80
2018-03-27T16:53:44.321Z,17.10
2018-03-27T16:56:11.844Z,19.63
2018-03-27T16:58:40.061Z,18.40
2018-03-27T17:01:07.539Z,19.27
2018-03-27T17:03:35.116Z,20.10
2018-03-27T17:06:02.605Z,19.93
2018-03-27T17:08:30.816Z,21.30
2018-03-27T17:10:59.054Z,20.20
2018-03-27T17:13:26.926Z,21.43
2018-03-27T17:15:54.404Z,23.43
2018-03-27T17:18:21.856Z,28.40
2018-03-27T17:20:49.380Z,25.90
2018-03-27T17:23:17.251Z,24.60
2018-03-27T17:25:45.126Z,26.63
2018-03-27T17:28:13.343Z,28.20
2018-03-27T17:30:44.407Z,28.20
2018-03-27T17:33:13.523Z,29.57
2018-03-27T17:35:40.993Z,29.77
2018-03-27T17:38:08.832Z,31.87
2018-03-27T17:40:37.648Z,29.93
2018-03-27T17:43:05.106Z,32.30
2018-03-27T17:45:33.347Z,33.30
2018-03-27T17:48:00.802Z,35.13
2018-03-27T17:50:30.625Z,36.90
2018-03-27T17:52:58.111Z,36.03
2018-03-27T17:55:26.704Z,44.07
2018-03-27T17:57:54.158Z,40.17
2018-03-27T18:00:21.660Z,55.10
2018-03-27T18:02:49.870Z,36.17
2018-03-27T18:05:17.734Z,38.00
2018-03-27T18:07:45.668Z,38.60
2018-03-27T18:10:13.455Z,36.43
2018-03-27T18:12:40.907Z,36.30
2018-03-27T18:15:08.360Z,34.40
2018-03-27T18:17:36.583Z,35.40
2018-03-27T18:20:04.434Z,36.27
2018-03-27T18:22:31.907Z,35.90
2018-03-27T18:24:59.406Z,32.03
2018-03-27T18:27:28.067Z,34.10
2018-03-27T18:29:56.283Z,31.90
2018-03-27T18:32:24.525Z,35.07
2018-03-27T18:34:52.759Z,33.17
2018-03-27T18:37:21.498Z,32.30
2018-03-27T18:39:49.307Z,34.23
2018-03-27T18:42:16.835Z,35.87
2018-03-27T18:44:45.075Z,35.97
2018-03-27T18:47:12.535Z,31.83
2018-03-27T18:49:40.851Z,30.50
2018-03-27T18:52:08.582Z,26.30
2018-03-27T18:54:36.607Z,27.40
2018-03-27T18:57:04.886Z,28.47
2018-03-27T18:59:32.388Z,25.30
2018-03-27T19:02:00.719Z,25.13
2018-03-27T19:04:28.449Z,24.33
2018-03-27T19:06:57.935Z,24.60
2018-03-27T19:09:26.227Z,24.60
2018-03-27T19:11:55.323Z,27.97
2018-03-27T19:14:23.956Z,24.33
2018-03-27T19:16:52.175Z,25.33
2018-03-27T19:19:20.036Z,25.23
2018-03-27T19:21:47.593Z,25.00
2018-03-27T19:24:16.223Z,26.30
2018-03-27T19:26:43.698Z,27.40
2018-03-27T19:29:11.671Z,29.67
2018-03-27T19:31:39.163Z,30.10
2018-03-27T19:34:12.209Z,31.03
2018-03-27T19:36:40.004Z,31.53
2018-03-27T19:39:07.859Z,32.93
2018-03-27T19:41:36.327Z,31.60
2018-03-27T19:44:07.392Z,30.17
2018-03-27T19:46:50.556Z,32.20
2018-03-27T19:49:19.128Z,28.63
2018-03-27T19:51:46.811Z,31.40
2018-03-27T19:54:15.405Z,30.17
2018-03-27T19:56:43.268Z,32.20
2018-03-27T19:59:11.052Z,30.60
2018-03-27T20:01:38.537Z,31.77
2018-03-27T20:04:06.384Z,31.00
2018-03-27T20:06:34.260Z,29.70
2018-03-27T20:09:01.765Z,29.90
2018-03-27T20:11:29.255Z,31.37
2018-03-27T20:13:57.847Z,28.17
2018-03-27T20:16:25.796Z,27.37
2018-03-27T20:18:54.099Z,33.00
2018-03-27T20:21:22.047Z,25.10
2018-03-27T20:23:50.319Z,32.53
2018-03-27T20:26:19.149Z,33.60
2018-03-27T20:28:47.351Z,33.40
2018-03-27T20:31:15.297Z,34.13
2018-03-27T20:33:43.880Z,36.70
2018-03-27T20:36:11.557Z,31.60
2018-03-27T20:38:39.032Z,35.17
2018-03-27T20:41:09.467Z,31.23
2018-03-27T20:43:36.942Z,34.20
2018-03-27T20:46:05.233Z,38.30
2018-03-27T20:48:46.729Z,32.43
2018-03-27T20:51:14.844Z,39.03
2018-03-27T20:53:42.345Z,32.90
2018-03-27T20:56:09.807Z,35.90
2018-03-27T20:58:37.324Z,38.10
2018-03-27T21:01:05.551Z,35.10
2018-03-27T21:03:33.084Z,32.90
2018-03-27T21:06:00.542Z,36.40
2018-03-27T21:08:28.460Z,33.50
2018-03-27T21:10:56.715Z,31.77
2018-03-27T21:13:24.654Z,32.93
2018-03-27T21:15:52.119Z,33.67
2018-03-27T21:18:20.371Z,28.63
2018-03-27T21:20:48.035Z,29.07
2018-03-27T21:23:16.341Z,29.70
2018-03-27T21:25:43.794Z,28.70
2018-03-27T21:28:11.243Z,29.80
2018-03-27T21:30:38.990Z,28.80
2018-03-27T21:33:07.374Z,29.20
2018-03-27T21:35:38.095Z,29.57
2018-03-27T21:38:06.324Z,25.87
2018-03-27T21:40:34.015Z,22.33
2018-03-27T21:43:02.231Z,27.63
2018-03-27T21:45:29.692Z,25.20
2018-03-27T21:47:57.912Z,25.30
2018-03-27T21:50:25.371Z,24.60
2018-03-27T21:52:53.600Z,24.13
2018-03-27T21:55:21.039Z,25.10
2018-03-27T21:57:48.504Z,24.30
2018-03-27T22:00:16.384Z,23.50
2018-03-27T22:02:44.223Z,25.27
2018-03-27T22:05:11.679Z,28.53
2018-03-27T22:07:39.115Z,28.73
2018-03-27T22:10:06.559Z,24.50
2018-03-27T22:12:34.016Z,24.37
2018-03-27T22:15:01.470Z,23.87
2018-03-27T22:17:29.703Z,25.17
2018-03-27T22:19:57.657Z,23.73
2018-03-27T22:22:48.827Z,24.87
2018-03-27T22:25:17.117Z,27.87
2018-03-27T22:27:44.673Z,27.40
2018-03-27T22:30:12.147Z,27.07
2018-03-27T22:32:39.758Z,27.13
2018-03-27T22:35:07.988Z,27.93
2018-03-27T22:37:35.449Z,30.37
2018-03-27T22:40:02.929Z,28.90
2018-03-27T22:42:30.592Z,31.57
2018-03-27T22:44:58.071Z,31.90
2018-03-27T22:50:28.547Z,30.20
2018-03-27T22:52:58.154Z,31.60
2018-03-27T22:55:30.592Z,30.17
2018-03-27T22:57:58.848Z,30.00
2018-03-27T23:00:26.734Z,33.27
2018-03-27T23:02:54.951Z,36.87
2018-03-27T23:05:22.397Z,34.67
2018-03-27T23:10:34.200Z,31.60
2018-03-27T23:13:01.692Z,31.07
2018-03-27T23:15:29.935Z,32.60
2018-03-27T23:17:57.408Z,37.17
2018-03-27T23:20:27.851Z,36.53
2018-03-27T23:22:56.139Z,32.30
2018-03-27T23:25:24.361Z,31.80
2018-03-27T23:27:52.556Z,32.53
2018-03-27T23:30:20.030Z,29.63
2018-03-27T23:33:03.138Z,31.93
2018-03-27T23:35:31.606Z,29.50
2018-03-27T23:40:50.042Z,29.77
2018-03-27T23:43:18.255Z,27.00
2018-03-27T23:45:47.549Z,29.40
2018-03-27T23:51:10.590Z,29.77
2018-03-27T23:56:42.592Z,28.90
2018-03-27T23:59:10.796Z,30.13
